Time,TemperatureF,DewpointF,PressureIn,WindDirection,WindDirectionDegrees,WindSpeedMPH,WindSpeedGustMPH,Humidity,HourlyPrecipIn,Conditions,Clouds,dailyrainin,SoftwareType,DateUTC
2013-08-29 00:04:00,67.5,58.1,29.56,ESE,112,0.0,-999.0,72,-99.99,,,0.00,Acu-Link.com,2013-08-29 07:04:00,
2013-08-29 00:19:00,66.7,58.1,29.56,ESE,112,0.0,-999.0,74,-99.99,,,0.00,Acu-Link.com,2013-08-29 07:19:00,
2013-08-29 00:34:00,66.0,57.5,29.56,ESE,112,0.0,-999.0,74,-99.99,,,0.00,Acu-Link.com,2013-08-29 07:34:00,
2013-08-29 00:50:00,65.7,57.6,29.56,ESE,112,0.0,-999.0,75,-99.99,,,0.00,Acu-Link.com,2013-08-29 07:50:00,
2013-08-29 01:05:00,65.3,57.5,29.56,ESE,112,0.0,-999.0,76,-99.99,,,0.00,Acu-Link.com,2013-08-29 08:05:00,
2013-08-29 01:20:00,65.1,57.3,29.56,ESE,112,0.0,-999.0,76,-99.99,,,0.00,Acu-Link.com,2013-08-29 08:20:00,
2013-08-29 01:36:00,64.6,57.2,29.56,ESE,112,0.0,-999.0,77,-99.99,,,0.00,Acu-Link.com,2013-08-29 08:36:00,
2013-08-29 01:51:00,64.4,57.4,29.56,ESE,112,0.0,-999.0,78,-99.99,,,0.00,Acu-Link.com,2013-08-29 08:51:00,
2013-08-29 02:06:00,64.0,57.0,29.56,ESE,112,0.0,-999.0,78,-99.99,,,0.00,Acu-Link.com,2013-08-29 09:06:00,
2013-08-29 02:21:00,63.9,57.6,29.56,ESE,112,0.0,-999.0,80,-99.99,,,0.00,Acu-Link.com,2013-08-29 09:21:00,
2013-08-29 02:36:00,63.7,57.8,29.55,ESE,112,0.0,-999.0,81,-99.99,,,0.00,Acu-Link.com,2013-08-29 09:36:00,
2013-08-29 02:51:00,63.5,57.6,29.55,ESE,112,0.0,-999.0,81,-99.99,,,0.00,Acu-Link.com,2013-08-29 09:51:00,
2013-08-29 03:06:00,63.5,57.9,29.54,ESE,112,0.0,-999.0,82,-99.99,,,0.00,Acu-Link.com,2013-08-29 10:06:00,
2013-08-29 03:22:00,62.8,57.6,29.55,ESE,112,0.0,-999.0,83,-99.99,,,0.00,Acu-Link.com,2013-08-29 10:22:00,
2013-08-29 03:37:00,62.4,57.8,29.55,ESE,112,0.0,-999.0,85,-99.99,,,0.00,Acu-Link.com,2013-08-29 10:37:00,
2013-08-29 03:52:00,62.2,57.3,29.54,ESE,112,0.0,-999.0,84,-99.99,,,0.00,Acu-Link.com,2013-08-29 10:52:00,
2013-08-29 04:07:00,61.7,57.8,29.54,ESE,112,0.0,-999.0,87,-99.99,,,0.00,Acu-Link.com,2013-08-29 11:07:00,
2013-08-29 04:22:00,61.5,57.9,29.55,ESE,112,0.0,-999.0,88,-99.99,,,0.00,Acu-Link.com,2013-08-29 11:22:00,
2013-08-29 04:37:00,61.0,58.0,29.55,ESE,112,0.0,-999.0,90,-99.99,,,0.00,Acu-Link.com,2013-08-29 11:37:00,
2013-08-29 04:52:00,60.4,57.1,29.56,ESE,112,0.0,-999.0,89,-99.99,,,0.00,Acu-Link.com,2013-08-29 11:52:00,
2013-08-29 05:07:00,59.9,57.3,29.55,ESE,112,0.0,-999.0,91,-99.99,,,0.00,Acu-Link.com,2013-08-29 12:07:00,
2013-08-29 05:22:00,59.5,57.2,29.56,ESE,112,0.0,-999.0,92,-99.99,,,0.00,Acu-Link.com,2013-08-29 12:22:00,
2013-08-29 05:38:00,59.5,57.8,29.57,ESE,112,0.0,-999.0,94,-99.99,,,0.00,Acu-Link.com,2013-08-29 12:38:00,
2013-08-29 05:53:00,59.5,57.8,29.57,ESE,112,0.0,-999.0,94,-99.99,,,0.00,Acu-Link.com,2013-08-29 12:53:00,
2013-08-29 06:08:00,59.2,57.8,29.58,ESE,112,0.0,-999.0,95,-99.99,,,0.00,Acu-Link.com,2013-08-29 13:08:00,
2013-08-29 06:23:00,59.2,57.8,29.58,ESE,112,0.0,-999.0,95,-99.99,,,0.00,Acu-Link.com,2013-08-29 13:23:00,
2013-08-29 06:38:00,59.4,57.7,29.59,ESE,112,0.0,-999.0,94,-99.99,,,0.00,Acu-Link.com,2013-08-29 13:38:00,
2013-08-29 06:53:00,59.7,58.0,29.59,ESE,112,0.0,-999.0,94,-99.99,,,0.00,Acu-Link.com,2013-08-29 13:53:00,
2013-08-29 07:08:00,60.3,58.6,29.60,ESE,112,0.0,-999.0,94,-99.99,,,0.00,Acu-Link.com,2013-08-29 14:08:00,
2013-08-29 07:23:00,61.5,58.5,29.61,ESE,112,0.0,-999.0,90,-99.99,,,0.00,Acu-Link.com,2013-08-29 14:23:00,
2013-08-29 07:38:00,61.9,58.6,29.62,ESE,112,0.0,-999.0,89,-99.99,,,0.00,Acu-Link.com,2013-08-29 14:38:00,
2013-08-29 07:54:00,61.9,59.2,29.62,ESE,112,0.0,-999.0,91,-99.99,,,0.00,Acu-Link.com,2013-08-29 14:54:00,
2013-08-29 08:09:00,62.4,58.8,29.61,ESE,112,0.0,-999.0,88,-99.99,,,0.00,Acu-Link.com,2013-08-29 15:09:00,
2013-08-29 08:24:00,64.2,59.6,29.62,ESE,112,0.0,-999.0,85,-99.99,,,0.00,Acu-Link.com,2013-08-29 15:24:00,
2013-08-29 08:39:00,67.6,60.5,29.63,ESE,112,2.7,-999.0,78,-99.99,,,0.00,Acu-Link.com,2013-08-29 15:39:00,
2013-08-29 08:54:00,68.7,60.4,29.64,ESE,112,1.7,-999.0,75,-99.99,,,0.00,Acu-Link.com,2013-08-29 15:54:00,
2013-08-29 09:09:00,70.2,61.1,29.64,ESE,112,2.7,-999.0,73,-99.99,,,0.00,Acu-Link.com,2013-08-29 16:09:00,
2013-08-29 09:24:00,73.6,62.0,29.64,ESE,112,0.0,-999.0,67,-99.99,,,0.00,Acu-Link.com,2013-08-29 16:24:00,
2013-08-29 09:40:00,76.1,62.6,29.64,ESE,112,2.2,-999.0,63,-99.99,,,0.00,Acu-Link.com,2013-08-29 16:40:00,
2013-08-29 09:55:00,74.7,61.7,29.65,ESE,112,2.7,-999.0,64,-99.99,,,0.00,Acu-Link.com,2013-08-29 16:55:00,
2013-08-29 10:10:00,76.3,62.3,29.65,ESE,112,0.0,-999.0,62,-99.99,,,0.00,Acu-Link.com,2013-08-29 17:10:00,
2013-08-29 10:25:00,76.6,62.1,29.65,ESE,112,2.7,-999.0,61,-99.99,,,0.00,Acu-Link.com,2013-08-29 17:25:00,
2013-08-29 10:40:00,77.5,62.5,29.65,ESE,112,2.2,-999.0,60,-99.99,,,0.00,Acu-Link.com,2013-08-29 17:40:00,
2013-08-29 10:55:00,79.9,62.8,29.64,South,180,2.7,-999.0,56,-99.99,,,0.00,Acu-Link.com,2013-08-29 17:55:00,
2013-08-29 11:10:00,81.5,62.7,29.64,NW,315,1.1,-999.0,53,-99.99,,,0.00,Acu-Link.com,2013-08-29 18:10:00,
2013-08-29 11:25:00,80.1,61.4,29.64,ENE,67,1.7,-999.0,53,-99.99,,,0.00,Acu-Link.com,2013-08-29 18:25:00,
2013-08-29 11:40:00,85.1,62.6,29.64,NNW,337,1.1,-999.0,47,-99.99,,,0.00,Acu-Link.com,2013-08-29 18:40:00,
2013-08-29 11:56:00,85.8,62.0,29.64,SSE,157,1.1,-999.0,45,-99.99,,,0.00,Acu-Link.com,2013-08-29 18:56:00,
2013-08-29 12:11:00,85.6,61.8,29.64,SSW,202,0.0,-999.0,45,-99.99,,,0.00,Acu-Link.com,2013-08-29 19:11:00,
2013-08-29 12:26:00,89.8,60.8,29.64,SE,135,2.7,-999.0,38,-99.99,,,0.00,Acu-Link.com,2013-08-29 19:26:00,
2013-08-29 12:41:00,88.3,60.2,29.64,SSW,202,2.2,-999.0,39,-99.99,,,0.00,Acu-Link.com,2013-08-29 19:41:00,
2013-08-29 12:56:00,85.8,60.7,29.64,SSE,157,2.7,-999.0,43,-99.99,,,0.00,Acu-Link.com,2013-08-29 19:56:00,
2013-08-29 13:11:00,88.9,61.4,29.64,SSE,157,2.2,-999.0,40,-99.99,,,0.00,Acu-Link.com,2013-08-29 20:11:00,
2013-08-29 13:26:00,86.5,59.3,29.63,SSW,202,1.1,-999.0,40,-99.99,,,0.00,Acu-Link.com,2013-08-29 20:26:00,
2013-08-29 13:41:00,89.1,59.4,29.64,SW,225,2.2,-999.0,37,-99.99,,,0.00,Acu-Link.com,2013-08-29 20:41:00,
2013-08-29 13:56:00,84.2,57.9,29.64,South,180,3.2,-999.0,41,-99.99,,,0.00,Acu-Link.com,2013-08-29 20:56:00,
2013-08-29 14:12:00,82.9,58.1,29.64,SSW,202,3.2,-999.0,43,-99.99,,,0.00,Acu-Link.com,2013-08-29 21:12:00,
2013-08-29 14:27:00,87.8,58.2,29.64,SSW,202,4.7,-999.0,37,-99.99,,,0.00,Acu-Link.com,2013-08-29 21:27:00,
2013-08-29 14:42:00,87.3,57.8,29.64,SSW,202,4.2,-999.0,37,-99.99,,,0.00,Acu-Link.com,2013-08-29 21:42:00,
2013-08-29 14:57:00,87.6,58.1,29.64,SSE,157,6.3,-999.0,37,-99.99,,,0.00,Acu-Link.com,2013-08-29 21:57:00,
2013-08-29 15:12:00,88.2,58.6,29.63,SSW,202,5.8,-999.0,37,-99.99,,,0.00,Acu-Link.com,2013-08-29 22:12:00,
2013-08-29 15:27:00,85.1,58.7,29.63,South,180,4.2,-999.0,41,-99.99,,,0.00,Acu-Link.com,2013-08-29 22:27:00,
2013-08-29 15:42:00,84.7,58.4,29.63,SSW,202,5.8,-999.0,41,-99.99,,,0.00,Acu-Link.com,2013-08-29 22:42:00,
2013-08-29 15:57:00,85.6,61.2,29.63,ESE,112,3.2,-999.0,44,-99.99,,,0.00,Acu-Link.com,2013-08-29 22:57:00,
2013-08-29 16:12:00,83.1,62.5,29.64,SSE,157,4.2,-999.0,50,-99.99,,,0.00,Acu-Link.com,2013-08-29 23:12:00,
2013-08-29 16:28:00,83.1,63.6,29.65,South,180,5.8,-999.0,52,-99.99,,,0.00,Acu-Link.com,2013-08-29 23:28:00,
2013-08-29 16:43:00,82.0,62.6,29.65,SSW,202,3.7,-999.0,52,-99.99,,,0.00,Acu-Link.com,2013-08-29 23:43:00,
2013-08-29 16:58:00,81.9,63.1,29.64,SSE,157,3.2,-999.0,53,-99.99,,,0.00,Acu-Link.com,2013-08-29 23:58:00,
2013-08-29 17:13:00,81.3,62.5,29.64,South,180,2.7,-999.0,53,-99.99,,,0.00,Acu-Link.com,2013-08-30 00:13:00,
2013-08-29 17:28:00,80.6,61.9,29.65,South,180,4.7,-999.0,53,-99.99,,,0.00,Acu-Link.com,2013-08-30 00:28:00,
2013-08-29 17:43:00,79.7,62.1,29.65,NNE,22,2.7,-999.0,55,-99.99,,,0.00,Acu-Link.com,2013-08-30 00:43:00,
2013-08-29 17:58:00,79.0,61.4,29.65,SE,135,3.7,-999.0,55,-99.99,,,0.00,Acu-Link.com,2013-08-30 00:58:00,
2013-08-29 18:13:00,78.4,61.9,29.66,SW,225,4.2,-999.0,57,-99.99,,,0.00,Acu-Link.com,2013-08-30 01:13:00,
2013-08-29 18:28:00,77.9,60.9,29.66,South,180,3.7,-999.0,56,-99.99,,,0.00,Acu-Link.com,2013-08-30 01:28:00,
2013-08-29 18:44:00,77.2,60.8,29.66,South,180,5.8,-999.0,57,-99.99,,,0.00,Acu-Link.com,2013-08-30 01:44:00,
2013-08-29 18:59:00,76.5,60.6,29.67,SSE,157,2.7,-999.0,58,-99.99,,,0.00,Acu-Link.com,2013-08-30 01:59:00,
2013-08-29 19:14:00,75.7,60.8,29.67,ENE,67,2.7,-999.0,60,-99.99,,,0.00,Acu-Link.com,2013-08-30 02:14:00,
2013-08-29 19:29:00,74.8,60.4,29.67,SSE,157,3.7,-999.0,61,-99.99,,,0.00,Acu-Link.com,2013-08-30 02:29:00,
2013-08-29 19:44:00,73.9,60.5,29.68,South,180,0.0,-999.0,63,-99.99,,,0.00,Acu-Link.com,2013-08-30 02:44:00,
2013-08-29 19:59:00,72.7,59.8,29.68,South,180,3.2,-999.0,64,-99.99,,,0.00,Acu-Link.com,2013-08-30 02:59:00,
2013-08-29 20:15:00,72.0,60.0,29.69,ENE,67,2.2,-999.0,66,-99.99,,,0.00,Acu-Link.com,2013-08-30 03:15:00,
2013-08-29 20:30:00,71.1,60.0,29.69,WSW,247,2.7,-999.0,68,-99.99,,,0.00,Acu-Link.com,2013-08-30 03:30:00,
2013-08-29 20:45:00,70.3,59.6,29.70,South,180,2.2,-999.0,69,-99.99,,,0.00,Acu-Link.com,2013-08-30 03:45:00,
2013-08-29 21:00:00,70.0,59.8,29.71,SSW,202,2.2,-999.0,70,-99.99,,,0.00,Acu-Link.com,2013-08-30 04:00:00,
2013-08-29 21:15:00,69.3,59.9,29.72,South,180,3.2,-999.0,72,-99.99,,,0.00,Acu-Link.com,2013-08-30 04:15:00,
2013-08-29 21:30:00,68.7,59.7,29.72,SSE,157,2.2,-999.0,73,-99.99,,,0.00,Acu-Link.com,2013-08-30 04:30:00,
2013-08-29 21:45:00,68.4,59.8,29.73,SSE,157,1.7,-999.0,74,-99.99,,,0.00,Acu-Link.com,2013-08-30 04:45:00,
2013-08-29 22:01:00,68.0,59.8,29.73,East,90,2.7,-999.0,75,-99.99,,,0.00,Acu-Link.com,2013-08-30 05:01:00,
2013-08-29 22:16:00,67.6,59.8,29.73,ENE,67,1.7,-999.0,76,-99.99,,,0.00,Acu-Link.com,2013-08-30 05:16:00,
2013-08-29 22:31:00,67.5,59.7,29.73,SE,135,0.0,-999.0,76,-99.99,,,0.00,Acu-Link.com,2013-08-30 05:31:00,
2013-08-29 22:46:00,67.3,59.8,29.75,NNW,337,2.7,-999.0,77,-99.99,,,0.00,Acu-Link.com,2013-08-30 05:46:00,
2013-08-29 23:01:00,67.1,59.6,29.75,SSW,202,2.7,-999.0,77,-99.99,,,0.00,Acu-Link.com,2013-08-30 06:01:00,
2013-08-29 23:16:00,66.9,59.4,29.75,South,180,3.7,-999.0,77,-99.99,,,0.00,Acu-Link.com,2013-08-30 06:16:00,
2013-08-29 23:32:00,66.9,59.8,29.75,SSW,202,2.2,-999.0,78,-99.99,,,0.00,Acu-Link.com,2013-08-30 06:32:00,
2013-08-29 23:47:00,66.7,59.6,29.75,South,180,1.1,-999.0,78,-99.99,,,0.00,Acu-Link.com,2013-08-30 06:47:00,